Terminal Aerodrome Forecast
Issued by NWS Wichita, KS

Home | Current Version | Previous Version | Text Only | Print | Product List | Glossary Off
Versions: 1 2 3 4 5 6 7 8 9 10 11 12 13

004
FTUS43 KICT 200520
TAFICT
TAF
KICT 200520Z 2006/2106 18013KT P6SM SCT250 WS020/21045KT
     FM200800 17007KT P6SM SCT250
      TEMPO 2011/2014 5SM BR
     FM201500 01011KT P6SM SCT250
     FM201700 03014KT P6SM SCT250=

USA.gov is the U.S. government's official web portal to all federal, state and local government web resources and services.